sensor_id;sensor_type;location;lat;lon;timestamp;pressure;altitude;pressure_sealevel;temperature;humidity
75317;BME280;63913;51.492;10.368;2023-04-27T00:01:13;98691.16;;;2.75;70.01
75317;BME280;63913;51.492;10.368;2023-04-27T00:03:39;98696.28;;;2.76;70.02
75317;BME280;63913;51.492;10.368;2023-04-27T00:06:06;98686.69;;;2.71;69.96
75317;BME280;63913;51.492;10.368;2023-04-27T00:08:32;98685.91;;;2.72;69.84
75317;BME280;63913;51.492;10.368;2023-04-27T00:10:58;98689.50;;;2.75;70.23
75317;BME280;63913;51.492;10.368;2023-04-27T00:13:23;98693.06;;;2.79;70.20
75317;BME280;63913;51.492;10.368;2023-04-27T00:15:49;98690.28;;;2.74;70.47
75317;BME280;63913;51.492;10.368;2023-04-27T00:18:15;98685.28;;;2.76;70.88
75317;BME280;63913;51.492;10.368;2023-04-27T00:20:40;98684.94;;;2.69;71.01
75317;BME280;63913;51.492;10.368;2023-04-27T00:23:05;98683.34;;;2.72;70.95
75317;BME280;63913;51.492;10.368;2023-04-27T00:25:31;98688.25;;;2.68;71.04
75317;BME280;63913;51.492;10.368;2023-04-27T00:27:56;98683.59;;;2.76;70.99
75317;BME280;63913;51.492;10.368;2023-04-27T00:30:23;98684.75;;;2.81;70.44
75317;BME280;63913;51.492;10.368;2023-04-27T00:32:48;98683.50;;;2.89;70.46
75317;BME280;63913;51.492;10.368;2023-04-27T00:35:15;98688.59;;;2.89;70.35
75317;BME280;63913;51.492;10.368;2023-04-27T00:37:40;98675.47;;;2.82;70.62
75317;BME280;63913;51.492;10.368;2023-04-27T00:40:06;98685.06;;;2.87;70.83
75317;BME280;63913;51.492;10.368;2023-04-27T00:42:32;98685.06;;;2.87;71.22
75317;BME280;63913;51.492;10.368;2023-04-27T00:44:58;98679.41;;;2.77;71.13
75317;BME280;63913;51.492;10.368;2023-04-27T00:47:23;98689.50;;;2.75;71.58
75317;BME280;63913;51.492;10.368;2023-04-27T00:49:49;98681.88;;;2.75;71.35
75317;BME280;63913;51.492;10.368;2023-04-27T00:52:15;98678.47;;;2.75;71.93
75317;BME280;63913;51.492;10.368;2023-04-27T00:54:41;98686.66;;;2.85;71.89
75317;BME280;63913;51.492;10.368;2023-04-27T00:57:07;98684.28;;;2.88;71.77
75317;BME280;63913;51.492;10.368;2023-04-27T00:59:33;98680.28;;;2.92;71.66
75317;BME280;63913;51.492;10.368;2023-04-27T01:01:58;98681.66;;;2.87;71.99
75317;BME280;63913;51.492;10.368;2023-04-27T01:04:24;98674.81;;;2.86;71.98
75317;BME280;63913;51.492;10.368;2023-04-27T01:06:50;98681.84;;;2.90;71.65
75317;BME280;63913;51.492;10.368;2023-04-27T01:09:15;98679.13;;;2.87;72.06
75317;BME280;63913;51.492;10.368;2023-04-27T01:11:44;98669.16;;;2.90;72.19
75317;BME280;63913;51.492;10.368;2023-04-27T01:14:09;98676.03;;;2.92;71.79
75317;BME280;63913;51.492;10.368;2023-04-27T01:16:35;98679.22;;;2.88;71.78
75317;BME280;63913;51.492;10.368;2023-04-27T01:19:01;98680.78;;;2.86;71.76
75317;BME280;63913;51.492;10.368;2023-04-27T01:21:27;98680.88;;;2.88;72.00
75317;BME280;63913;51.492;10.368;2023-04-27T01:23:53;98683.50;;;2.89;72.20
75317;BME280;63913;51.492;10.368;2023-04-27T01:26:18;98677.78;;;2.93;71.75
75317;BME280;63913;51.492;10.368;2023-04-27T01:28:44;98681.94;;;2.91;71.94
75317;BME280;63913;51.492;10.368;2023-04-27T01:31:10;98686.13;;;2.91;71.99
75317;BME280;63913;51.492;10.368;2023-04-27T01:33:36;98684.53;;;2.93;71.68
75317;BME280;63913;51.492;10.368;2023-04-27T01:36:02;98687.00;;;2.91;71.94
75317;BME280;63913;51.492;10.368;2023-04-27T01:38:27;98691.44;;;2.95;71.80
75317;BME280;63913;51.492;10.368;2023-04-27T01:40:52;98686.13;;;2.91;72.14
75317;BME280;63913;51.492;10.368;2023-04-27T01:43:26;98691.91;;;2.88;71.76
75317;BME280;63913;51.492;10.368;2023-04-27T01:45:52;98687.38;;;2.83;72.14
75317;BME280;63913;51.492;10.368;2023-04-27T01:48:18;98692.59;;;2.86;72.06
75317;BME280;63913;51.492;10.368;2023-04-27T01:50:43;98686.13;;;2.76;72.21
75317;BME280;63913;51.492;10.368;2023-04-27T01:53:08;98692.09;;;2.77;72.34
75317;BME280;63913;51.492;10.368;2023-04-27T01:55:34;98694.72;;;2.78;71.98
75317;BME280;63913;51.492;10.368;2023-04-27T01:58:00;98692.03;;;2.75;71.86
75317;BME280;63913;51.492;10.368;2023-04-27T02:00:26;98703.84;;;2.75;72.17
75317;BME280;63913;51.492;10.368;2023-04-27T02:02:51;98704.44;;;2.71;72.36
75317;BME280;63913;51.492;10.368;2023-04-27T02:05:18;98706.97;;;2.71;72.39
75317;BME280;63913;51.492;10.368;2023-04-27T02:07:44;98709.63;;;2.72;72.42
75317;BME280;63913;51.492;10.368;2023-04-27T02:10:10;98722.31;;;2.72;72.12
75317;BME280;63913;51.492;10.368;2023-04-27T02:12:35;98713.91;;;2.73;72.21
75317;BME280;63913;51.492;10.368;2023-04-27T02:15:02;98713.63;;;2.68;72.15
75317;BME280;63913;51.492;10.368;2023-04-27T02:17:27;98714.59;;;2.71;72.10
75317;BME280;63913;51.492;10.368;2023-04-27T02:19:53;98723.09;;;2.71;72.28
75317;BME280;63913;51.492;10.368;2023-04-27T02:22:19;98722.84;;;2.66;72.64
75317;BME280;63913;51.492;10.368;2023-04-27T02:24:45;98733.25;;;2.71;72.46
75317;BME280;63913;51.492;10.368;2023-04-27T02:27:11;98728.16;;;2.71;72.77
75317;BME280;63913;51.492;10.368;2023-04-27T02:29:38;98738.50;;;2.74;72.64
75317;BME280;63913;51.492;10.368;2023-04-27T02:32:05;98728.94;;;2.70;72.76
75317;BME280;63913;51.492;10.368;2023-04-27T02:34:30;98732.13;;;2.66;72.67
75317;BME280;63913;51.492;10.368;2023-04-27T02:36:56;98743.66;;;2.61;72.96
75317;BME280;63913;51.492;10.368;2023-04-27T02:39:22;98740.53;;;2.65;72.50
75317;BME280;63913;51.492;10.368;2023-04-27T02:41:48;98738.94;;;2.52;72.47
75317;BME280;63913;51.492;10.368;2023-04-27T02:44:14;98744.53;;;2.47;72.68
75317;BME280;63913;51.492;10.368;2023-04-27T02:46:39;98746.72;;;2.55;72.76
75317;BME280;63913;51.492;10.368;2023-04-27T02:49:04;98743.66;;;2.46;73.23
75317;BME280;63913;51.492;10.368;2023-04-27T02:51:30;98747.28;;;2.50;73.31
75317;BME280;63913;51.492;10.368;2023-04-27T02:53:55;98749.97;;;2.53;73.56
75317;BME280;63913;51.492;10.368;2023-04-27T02:56:20;98749.91;;;2.51;73.09
75317;BME280;63913;51.492;10.368;2023-04-27T02:58:46;98750.94;;;2.55;73.55
75317;BME280;63913;51.492;10.368;2023-04-27T03:01:14;98747.69;;;2.57;73.07
75317;BME280;63913;51.492;10.368;2023-04-27T03:03:39;98749.97;;;2.53;72.93
75317;BME280;63913;51.492;10.368;2023-04-27T03:06:05;98754.88;;;2.50;72.88
75317;BME280;63913;51.492;10.368;2023-04-27T03:08:31;98754.78;;;2.48;73.17
75317;BME280;63913;51.492;10.368;2023-04-27T03:10:56;98753.03;;;2.47;73.41
75317;BME280;63913;51.492;10.368;2023-04-27T03:13:22;98753.03;;;2.47;72.78
75317;BME280;63913;51.492;10.368;2023-04-27T03:15:47;98755.47;;;2.46;73.42
75317;BME280;63913;51.492;10.368;2023-04-27T03:18:12;98760.09;;;2.53;73.30
75317;BME280;63913;51.492;10.368;2023-04-27T03:20:39;98761.97;;;2.55;73.17
75317;BME280;63913;51.492;10.368;2023-04-27T03:23:05;98759.06;;;2.49;73.60
75317;BME280;63913;51.492;10.368;2023-04-27T03:25:31;98755.22;;;2.41;74.64
75317;BME280;63913;51.492;10.368;2023-04-27T03:27:56;98759.56;;;2.44;74.10
75317;BME280;63913;51.492;10.368;2023-04-27T03:30:21;98754.34;;;2.55;73.71
75317;BME280;63913;51.492;10.368;2023-04-27T03:32:47;98760.50;;;2.59;73.48
75317;BME280;63913;51.492;10.368;2023-04-27T03:35:12;98764.06;;;2.48;73.67
75317;BME280;63913;51.492;10.368;2023-04-27T03:37:38;98764.66;;;2.44;73.64
75317;BME280;63913;51.492;10.368;2023-04-27T03:40:03;98763.97;;;2.46;73.96
75317;BME280;63913;51.492;10.368;2023-04-27T03:42:31;98765.03;;;2.50;73.78
75317;BME280;63913;51.492;10.368;2023-04-27T03:44:57;98765.91;;;2.50;73.89
75317;BME280;63913;51.492;10.368;2023-04-27T03:47:22;98763.63;;;2.55;73.80
75317;BME280;63913;51.492;10.368;2023-04-27T03:49:47;98769.22;;;2.49;73.98
75317;BME280;63913;51.492;10.368;2023-04-27T03:52:13;98776.50;;;2.43;74.31
75317;BME280;63913;51.492;10.368;2023-04-27T03:54:38;98767.81;;;2.40;74.13
75317;BME280;63913;51.492;10.368;2023-04-27T03:57:04;98770.09;;;2.50;74.11
75317;BME280;63913;51.492;10.368;2023-04-27T03:59:29;98765.97;;;2.52;74.18
75317;BME280;63913;51.492;10.368;2023-04-27T04:01:54;98761.44;;;2.46;74.58
75317;BME280;63913;51.492;10.368;2023-04-27T04:04:20;98761.78;;;2.52;74.58
75317;BME280;63913;51.492;10.368;2023-04-27T04:06:45;98762.66;;;2.53;74.32
75317;BME280;63913;51.492;10.368;2023-04-27T04:09:11;98763.97;;;2.61;73.89
75317;BME280;63913;51.492;10.368;2023-04-27T04:11:37;98759.75;;;2.61;73.98
75317;BME280;63913;51.492;10.368;2023-04-27T04:14:04;98758.97;;;2.62;74.28
75317;BME280;63913;51.492;10.368;2023-04-27T04:16:32;98759.94;;;2.64;74.55
75317;BME280;63913;51.492;10.368;2023-04-27T04:18:57;98764.06;;;2.62;74.42
75317;BME280;63913;51.492;10.368;2023-04-27T04:21:23;98760.72;;;2.63;74.48
75317;BME280;63913;51.492;10.368;2023-04-27T04:23:48;98761.97;;;2.55;74.47
75317;BME280;63913;51.492;10.368;2023-04-27T04:26:14;98759.25;;;2.67;74.14
75317;BME280;63913;51.492;10.368;2023-04-27T04:28:39;98766.59;;;2.62;74.22
75317;BME280;63913;51.492;10.368;2023-04-27T04:31:05;98766.00;;;2.66;75.06
75317;BME280;63913;51.492;10.368;2023-04-27T04:33:32;98759.06;;;2.64;75.07
75317;BME280;63913;51.492;10.368;2023-04-27T04:35:57;98762.69;;;2.67;74.58
75317;BME280;63913;51.492;10.368;2023-04-27T04:38:23;98762.50;;;2.64;74.72
75317;BME280;63913;51.492;10.368;2023-04-27T04:40:49;98765.28;;;2.54;75.26
75317;BME280;63913;51.492;10.368;2023-04-27T04:43:15;98763.28;;;2.63;75.11
75317;BME280;63913;51.492;10.368;2023-04-27T04:45:41;98758.38;;;2.66;74.71
75317;BME280;63913;51.492;10.368;2023-04-27T04:48:06;98754.25;;;2.68;74.93
75317;BME280;63913;51.492;10.368;2023-04-27T04:50:33;98753.22;;;2.65;74.90
75317;BME280;63913;51.492;10.368;2023-04-27T04:52:58;98761.84;;;2.68;74.84
75317;BME280;63913;51.492;10.368;2023-04-27T04:55:25;98766.06;;;2.68;74.60
75317;BME280;63913;51.492;10.368;2023-04-27T04:57:52;98758.19;;;2.63;74.40
75317;BME280;63913;51.492;10.368;2023-04-27T05:00:18;98768.44;;;2.65;74.57
75317;BME280;63913;51.492;10.368;2023-04-27T05:02:43;98769.13;;;2.62;74.59
75317;BME280;63913;51.492;10.368;2023-04-27T05:05:08;98773.22;;;2.60;75.08
75317;BME280;63913;51.492;10.368;2023-04-27T05:07:34;98775.88;;;2.62;74.90
75317;BME280;63913;51.492;10.368;2023-04-27T05:10:00;98777.53;;;2.61;75.04
75317;BME280;63913;51.492;10.368;2023-04-27T05:12:25;98779.13;;;2.59;75.05
75317;BME280;63913;51.492;10.368;2023-04-27T05:14:51;98773.97;;;2.58;75.55
75317;BME280;63913;51.492;10.368;2023-04-27T05:17:16;98777.81;;;2.66;75.55
75317;BME280;63913;51.492;10.368;2023-04-27T05:19:42;98781.13;;;2.65;75.35
75317;BME280;63913;51.492;10.368;2023-04-27T05:22:07;98792.25;;;2.67;75.74
75317;BME280;63913;51.492;10.368;2023-04-27T05:24:32;98788.84;;;2.66;75.78
75317;BME280;63913;51.492;10.368;2023-04-27T05:26:58;98799.94;;;2.68;75.40
75317;BME280;63913;51.492;10.368;2023-04-27T05:29:23;98804.13;;;2.68;75.46
75317;BME280;63913;51.492;10.368;2023-04-27T05:31:49;98803.72;;;2.75;75.84
75317;BME280;63913;51.492;10.368;2023-04-27T05:34:14;98800.22;;;2.88;75.88
75317;BME280;63913;51.492;10.368;2023-04-27T05:36:40;98808.25;;;2.95;76.09
75317;BME280;63913;51.492;10.368;2023-04-27T05:39:05;98805.19;;;3.01;76.06
75317;BME280;63913;51.492;10.368;2023-04-27T05:41:31;98805.78;;;3.12;75.94
75317;BME280;63913;51.492;10.368;2023-04-27T05:43:56;98819.78;;;3.20;75.37
75317;BME280;63913;51.492;10.368;2023-04-27T05:46:22;98819.34;;;3.27;75.42
75317;BME280;63913;51.492;10.368;2023-04-27T05:48:47;98825.03;;;3.37;75.47
75317;BME280;63913;51.492;10.368;2023-04-27T05:51:13;98815.28;;;3.45;75.28
75317;BME280;63913;51.492;10.368;2023-04-27T05:53:38;98824.19;;;3.53;74.62
75317;BME280;63913;51.492;10.368;2023-04-27T05:56:04;98833.50;;;3.53;74.17
75317;BME280;63913;51.492;10.368;2023-04-27T05:58:32;98837.97;;;3.57;73.23
75317;BME280;63913;51.492;10.368;2023-04-27T06:00:58;98834.19;;;3.65;72.50
75317;BME280;63913;51.492;10.368;2023-04-27T06:03:24;98829.94;;;3.65;71.44
75317;BME280;63913;51.492;10.368;2023-04-27T06:05:56;98839.69;;;3.72;71.03
75317;BME280;63913;51.492;10.368;2023-04-27T06:08:22;98829.13;;;3.81;71.11
75317;BME280;63913;51.492;10.368;2023-04-27T06:10:49;98824.34;;;3.87;70.29
75317;BME280;63913;51.492;10.368;2023-04-27T06:13:15;98820.47;;;3.94;69.81
75317;BME280;63913;51.492;10.368;2023-04-27T06:15:41;98811.50;;;4.00;69.32
75317;BME280;63913;51.492;10.368;2023-04-27T06:18:06;98815.97;;;4.04;68.70
75317;BME280;63913;51.492;10.368;2023-04-27T06:20:32;98827.00;;;4.05;69.81
75317;BME280;63913;51.492;10.368;2023-04-27T06:23:00;98826.94;;;4.03;70.80
75317;BME280;63913;51.492;10.368;2023-04-27T06:25:26;98826.28;;;4.07;70.37
75317;BME280;63913;51.492;10.368;2023-04-27T06:27:55;98828.03;;;4.08;69.94
75317;BME280;63913;51.492;10.368;2023-04-27T06:30:21;98824.13;;;4.15;69.04
75317;BME280;63913;51.492;10.368;2023-04-27T06:32:47;98834.88;;;4.26;66.67
75317;BME280;63913;51.492;10.368;2023-04-27T06:35:13;98833.13;;;4.25;67.67
75317;BME280;63913;51.492;10.368;2023-04-27T06:37:38;98834.00;;;4.25;67.18
75317;BME280;63913;51.492;10.368;2023-04-27T06:40:04;98822.84;;;4.23;66.76
75317;BME280;63913;51.492;10.368;2023-04-27T06:42:31;98838.91;;;4.22;66.75
75317;BME280;63913;51.492;10.368;2023-04-27T06:44:56;98834.00;;;4.25;67.50
75317;BME280;63913;51.492;10.368;2023-04-27T06:47:22;98832.50;;;4.29;67.28
75317;BME280;63913;51.492;10.368;2023-04-27T06:49:47;98847.03;;;4.31;67.45
75317;BME280;63913;51.492;10.368;2023-04-27T06:52:13;98842.91;;;4.33;67.47
75317;BME280;63913;51.492;10.368;2023-04-27T06:54:38;98851.91;;;4.43;67.13
75317;BME280;63913;51.492;10.368;2023-04-27T06:57:05;98852.47;;;4.53;67.78
75317;BME280;63913;51.492;10.368;2023-04-27T06:59:30;98857.78;;;4.58;67.34
75317;BME280;63913;51.492;10.368;2023-04-27T07:01:56;98858.25;;;4.67;67.06
75317;BME280;63913;51.492;10.368;2023-04-27T07:04:22;98850.41;;;4.80;67.16
75317;BME280;63913;51.492;10.368;2023-04-27T07:06:48;98849.50;;;4.96;66.01
75317;BME280;63913;51.492;10.368;2023-04-27T07:09:13;98851.44;;;5.00;66.45
75317;BME280;63913;51.492;10.368;2023-04-27T07:11:38;98853.38;;;5.06;66.06
75317;BME280;63913;51.492;10.368;2023-04-27T07:14:04;98852.94;;;4.96;66.31
75317;BME280;63913;51.492;10.368;2023-04-27T07:16:29;98857.59;;;5.05;66.91
75317;BME280;63913;51.492;10.368;2023-04-27T07:18:54;98853.13;;;5.17;66.53
75317;BME280;63913;51.492;10.368;2023-04-27T07:21:20;98847.06;;;5.15;66.35
75317;BME280;63913;51.492;10.368;2023-04-27T07:23:45;98839.78;;;5.05;66.64
75317;BME280;63913;51.492;10.368;2023-04-27T07:26:11;98839.69;;;5.04;67.45
75317;BME280;63913;51.492;10.368;2023-04-27T07:28:37;98851.63;;;5.05;67.48
75317;BME280;63913;51.492;10.368;2023-04-27T07:31:04;98846.25;;;4.98;67.05
75317;BME280;63913;51.492;10.368;2023-04-27T07:33:30;98852.22;;;4.99;68.05
75317;BME280;63913;51.492;10.368;2023-04-27T07:35:56;98842.69;;;5.13;67.23
75317;BME280;63913;51.492;10.368;2023-04-27T07:38:22;98848.97;;;5.02;67.89
75317;BME280;63913;51.492;10.368;2023-04-27T07:40:48;98848.88;;;5.00;68.87
75317;BME280;63913;51.492;10.368;2023-04-27T07:43:14;98854.44;;;5.09;68.43
75317;BME280;63913;51.492;10.368;2023-04-27T07:45:40;98846.78;;;5.09;68.47
75317;BME280;63913;51.492;10.368;2023-04-27T07:48:05;98850.50;;;5.16;68.71
75317;BME280;63913;51.492;10.368;2023-04-27T07:50:31;98860.84;;;5.19;69.74
75317;BME280;63913;51.492;10.368;2023-04-27T07:52:57;98856.69;;;5.21;69.15
75317;BME280;63913;51.492;10.368;2023-04-27T07:55:24;98856.94;;;5.25;69.36
75317;BME280;63913;51.492;10.368;2023-04-27T07:57:51;98856.53;;;5.35;69.38
75317;BME280;63913;51.492;10.368;2023-04-27T08:00:17;98861.72;;;5.37;69.11
75317;BME280;63913;51.492;10.368;2023-04-27T08:02:43;98865.31;;;5.41;68.80
75317;BME280;63913;51.492;10.368;2023-04-27T08:05:08;98867.28;;;5.46;68.24
75317;BME280;63913;51.492;10.368;2023-04-27T08:07:34;98856.72;;;5.56;67.31
75317;BME280;63913;51.492;10.368;2023-04-27T08:10:00;98856.88;;;5.59;67.31
75317;BME280;63913;51.492;10.368;2023-04-27T08:12:25;98858.66;;;5.62;66.50
75317;BME280;63913;51.492;10.368;2023-04-27T08:14:50;98860.69;;;5.69;66.43
75317;BME280;63913;51.492;10.368;2023-04-27T08:17:16;98860.00;;;5.89;66.80
75317;BME280;63913;51.492;10.368;2023-04-27T08:19:43;98868.97;;;5.99;65.91
75317;BME280;63913;51.492;10.368;2023-04-27T08:22:09;98859.22;;;6.09;65.48
75317;BME280;63913;51.492;10.368;2023-04-27T08:24:34;98857.34;;;6.25;65.13
75317;BME280;63913;51.492;10.368;2023-04-27T08:27:00;98858.53;;;6.31;64.83
75317;BME280;63913;51.492;10.368;2023-04-27T08:29:27;98856.88;;;6.33;64.13
75317;BME280;63913;51.492;10.368;2023-04-27T08:31:53;98859.50;;;6.35;64.20
75317;BME280;63913;51.492;10.368;2023-04-27T08:34:19;98857.75;;;6.34;62.02
75317;BME280;63913;51.492;10.368;2023-04-27T08:36:44;98853.53;;;6.34;61.75
75317;BME280;63913;51.492;10.368;2023-04-27T08:39:10;98857.28;;;6.42;61.91
75317;BME280;63913;51.492;10.368;2023-04-27T08:41:35;98850.31;;;6.58;61.40
75317;BME280;63913;51.492;10.368;2023-04-27T08:44:01;98843.91;;;7.07;59.86
75317;BME280;63913;51.492;10.368;2023-04-27T08:46:26;98834.91;;;7.58;59.29
75317;BME280;63913;51.492;10.368;2023-04-27T08:48:53;98833.22;;;7.81;57.19
75317;BME280;63913;51.492;10.368;2023-04-27T08:51:19;98827.78;;;7.94;56.99
75317;BME280;63913;51.492;10.368;2023-04-27T08:53:50;98823.94;;;8.75;56.35
75317;BME280;63913;51.492;10.368;2023-04-27T08:56:17;98835.91;;;9.02;54.24
75317;BME280;63913;51.492;10.368;2023-04-27T08:58:43;98835.28;;;9.61;52.05
75317;BME280;63913;51.492;10.368;2023-04-27T09:01:08;98827.06;;;10.00;49.53
75317;BME280;63913;51.492;10.368;2023-04-27T09:03:34;98830.50;;;10.58;48.82
75317;BME280;63913;51.492;10.368;2023-04-27T09:06:01;98830.59;;;10.63;47.96
75317;BME280;63913;51.492;10.368;2023-04-27T09:08:26;98822.91;;;10.96;46.75
75317;BME280;63913;51.492;10.368;2023-04-27T09:10:52;98831.00;;;11.09;45.91
75317;BME280;63913;51.492;10.368;2023-04-27T09:13:19;98831.59;;;10.99;46.39
75317;BME280;63913;51.492;10.368;2023-04-27T09:15:49;98824.59;;;11.27;45.87
75317;BME280;63913;51.492;10.368;2023-04-27T09:18:20;98819.16;;;11.52;45.02
75317;BME280;63913;51.492;10.368;2023-04-27T09:20:47;98816.59;;;11.51;44.35
75317;BME280;63913;51.492;10.368;2023-04-27T09:23:30;98825.53;;;11.68;44.10
75317;BME280;63913;51.492;10.368;2023-04-27T09:25:57;98827.59;;;11.45;43.90
75317;BME280;63913;51.492;10.368;2023-04-27T09:28:26;98821.78;;;11.54;43.70
75317;BME280;63913;51.492;10.368;2023-04-27T09:30:54;98817.63;;;11.59;43.96
75317;BME280;63913;51.492;10.368;2023-04-27T09:35:53;98814.00;;;11.52;42.94
75317;BME280;63913;51.492;10.368;2023-04-27T09:38:19;98816.75;;;11.60;43.79
75317;BME280;63913;51.492;10.368;2023-04-27T09:40:46;98810.25;;;11.74;42.73
75317;BME280;63913;51.492;10.368;2023-04-27T09:43:12;98814.63;;;11.76;42.01
75317;BME280;63913;51.492;10.368;2023-04-27T09:45:38;98805.25;;;11.80;41.04
75317;BME280;63913;51.492;10.368;2023-04-27T09:48:07;98802.88;;;11.89;41.02
75317;BME280;63913;51.492;10.368;2023-04-27T09:50:39;98808.63;;;11.77;40.32
75317;BME280;63913;51.492;10.368;2023-04-27T09:53:07;98803.81;;;11.55;36.89
75317;BME280;63913;51.492;10.368;2023-04-27T09:55:40;98799.44;;;11.53;38.28
75317;BME280;63913;51.492;10.368;2023-04-27T10:01:02;98802.69;;;11.80;39.11
75317;BME280;63913;51.492;10.368;2023-04-27T10:09:11;98813.06;;;11.84;39.01
75317;BME280;63913;51.492;10.368;2023-04-27T10:11:37;98808.22;;;11.25;38.65
75317;BME280;63913;51.492;10.368;2023-04-27T10:14:09;98814.50;;;10.68;40.00
75317;BME280;63913;51.492;10.368;2023-04-27T10:16:57;98807.63;;;11.00;41.37
75317;BME280;63913;51.492;10.368;2023-04-27T10:19:23;98811.84;;;10.98;39.50
75317;BME280;63913;51.492;10.368;2023-04-27T10:24:17;98810.63;;;11.17;41.19
75317;BME280;63913;51.492;10.368;2023-04-27T10:26:46;98813.69;;;11.04;41.82
75317;BME280;63913;51.492;10.368;2023-04-27T10:29:12;98811.84;;;10.98;42.58
75317;BME280;63913;51.492;10.368;2023-04-27T10:31:44;98805.28;;;11.09;41.70
75317;BME280;63913;51.492;10.368;2023-04-27T10:34:16;98801.78;;;11.43;41.10
75317;BME280;63913;51.492;10.368;2023-04-27T10:36:41;98796.69;;;11.81;41.54
75317;BME280;63913;51.492;10.368;2023-04-27T10:39:17;98800.91;;;11.77;40.58
75317;BME280;63913;51.492;10.368;2023-04-27T10:41:53;98791.47;;;11.78;38.27
75317;BME280;63913;51.492;10.368;2023-04-27T10:44:24;98800.56;;;11.28;39.58
75317;BME280;63913;51.492;10.368;2023-04-27T10:46:52;98794.44;;;10.88;41.15
75317;BME280;63913;51.492;10.368;2023-04-27T10:49:18;98799.50;;;11.20;41.70
75317;BME280;63913;51.492;10.368;2023-04-27T10:51:44;98793.22;;;11.43;39.91
75317;BME280;63913;51.492;10.368;2023-04-27T10:54:10;98786.84;;;11.65;40.11
75317;BME280;63913;51.492;10.368;2023-04-27T10:56:35;98789.88;;;11.84;39.29
75317;BME280;63913;51.492;10.368;2023-04-27T10:59:04;98779.66;;;11.50;41.46
75317;BME280;63913;51.492;10.368;2023-04-27T11:01:29;98784.41;;;11.33;39.90
75317;BME280;63913;51.492;10.368;2023-04-27T11:03:58;98789.56;;;11.71;39.98
75317;BME280;63913;51.492;10.368;2023-04-27T11:06:24;98799.53;;;11.56;39.91
75317;BME280;63913;51.492;10.368;2023-04-27T11:08:49;98790.25;;;11.64;39.90
75317;BME280;63913;51.492;10.368;2023-04-27T11:11:15;98796.91;;;11.90;38.18
75317;BME280;63913;51.492;10.368;2023-04-27T11:13:43;98789.41;;;12.02;37.89
75317;BME280;63913;51.492;10.368;2023-04-27T11:16:09;98791.03;;;11.97;38.07
75317;BME280;63913;51.492;10.368;2023-04-27T11:18:38;98779.31;;;12.11;38.72
75317;BME280;63913;51.492;10.368;2023-04-27T11:21:08;98784.22;;;12.01;37.79
75317;BME280;63913;51.492;10.368;2023-04-27T11:23:34;98777.97;;;11.88;38.80
75317;BME280;63913;51.492;10.368;2023-04-27T11:26:20;98793.81;;;11.69;38.28
75317;BME280;63913;51.492;10.368;2023-04-27T11:31:23;98776.91;;;12.20;37.98
75317;BME280;63913;51.492;10.368;2023-04-27T11:33:49;98784.50;;;12.58;37.41
75317;BME280;63913;51.492;10.368;2023-04-27T11:36:19;98775.56;;;12.84;38.16
75317;BME280;63913;51.492;10.368;2023-04-27T11:38:45;98775.16;;;13.11;36.14
75317;BME280;63913;51.492;10.368;2023-04-27T11:41:11;98776.81;;;13.08;39.34
75317;BME280;63913;51.492;10.368;2023-04-27T11:43:40;98779.63;;;12.72;38.53
75317;BME280;63913;51.492;10.368;2023-04-27T11:46:07;98780.63;;;12.81;37.75
75317;BME280;63913;51.492;10.368;2023-04-27T11:48:38;98770.63;;;12.98;36.63
75317;BME280;63913;51.492;10.368;2023-04-27T11:51:05;98770.94;;;13.13;37.75
75317;BME280;63913;51.492;10.368;2023-04-27T11:53:32;98766.09;;;13.34;36.41
75317;BME280;63913;51.492;10.368;2023-04-27T11:56:05;98763.53;;;13.36;35.25
75317;BME280;63913;51.492;10.368;2023-04-27T11:58:38;98770.28;;;13.26;35.60
75317;BME280;63913;51.492;10.368;2023-04-27T12:01:04;98772.69;;;13.17;36.28
75317;BME280;63913;51.492;10.368;2023-04-27T12:03:30;98773.88;;;12.86;36.01
75317;BME280;63913;51.492;10.368;2023-04-27T12:05:56;98777.78;;;13.13;36.75
75317;BME280;63913;51.492;10.368;2023-04-27T12:08:22;98775.63;;;13.37;36.67
75317;BME280;63913;51.492;10.368;2023-04-27T12:10:48;98774.00;;;13.44;35.53
75317;BME280;63913;51.492;10.368;2023-04-27T12:13:13;98757.69;;;13.48;34.75
75317;BME280;63913;51.492;10.368;2023-04-27T12:15:40;98764.22;;;13.24;36.31
75317;BME280;63913;51.492;10.368;2023-04-27T12:18:06;98766.22;;;13.42;35.17
75317;BME280;63913;51.492;10.368;2023-04-27T12:20:33;98768.06;;;13.51;35.10
75317;BME280;63913;51.492;10.368;2023-04-27T12:22:58;98756.03;;;13.51;35.24
75317;BME280;63913;51.492;10.368;2023-04-27T12:25:24;98756.94;;;13.56;36.12
75317;BME280;63913;51.492;10.368;2023-04-27T12:27:49;98760.56;;;13.67;34.89
75317;BME280;63913;51.492;10.368;2023-04-27T12:30:15;98744.38;;;13.81;35.89
75317;BME280;63913;51.492;10.368;2023-04-27T12:32:41;98741.88;;;13.88;33.98
75317;BME280;63913;51.492;10.368;2023-04-27T12:35:07;98747.94;;;13.90;34.99
75317;BME280;63913;51.492;10.368;2023-04-27T12:37:34;98752.03;;;13.74;33.52
75317;BME280;63913;51.492;10.368;2023-04-27T12:39:59;98742.50;;;13.69;33.86
75317;BME280;63913;51.492;10.368;2023-04-27T12:42:25;98735.00;;;13.89;35.46
75317;BME280;63913;51.492;10.368;2023-04-27T12:44:51;98734.19;;;13.93;34.02
75317;BME280;63913;51.492;10.368;2023-04-27T12:47:18;98729.22;;;14.08;34.80
75317;BME280;63913;51.492;10.368;2023-04-27T12:49:44;98726.81;;;14.23;34.29
75317;BME280;63913;51.492;10.368;2023-04-27T12:52:10;98725.13;;;14.28;34.54
75317;BME280;63913;51.492;10.368;2023-04-27T12:54:35;98720.25;;;14.52;34.35
75317;BME280;63913;51.492;10.368;2023-04-27T12:57:01;98722.78;;;14.46;33.00
75317;BME280;63913;51.492;10.368;2023-04-27T12:59:28;98724.59;;;14.57;33.64
75317;BME280;63913;51.492;10.368;2023-04-27T13:01:54;98721.34;;;14.77;32.33
75317;BME280;63913;51.492;10.368;2023-04-27T13:04:20;98716.25;;;14.83;31.07
75317;BME280;63913;51.492;10.368;2023-04-27T13:06:45;98715.19;;;14.63;31.83
75317;BME280;63913;51.492;10.368;2023-04-27T13:09:11;98721.53;;;14.97;36.10